sensor_id;sensor_type;location;lat;lon;timestamp;temperature;humidity
27384;DHT22;14851;51.166;4.760;2022-11-06T00:01:44;9.40;99.90
27384;DHT22;14851;51.166;4.760;2022-11-06T00:04:10;9.40;99.90
27384;DHT22;14851;51.166;4.760;2022-11-06T00:06:39;9.30;99.90
27384;DHT22;14851;51.166;4.760;2022-11-06T00:09:17;9.20;99.90
27384;DHT22;14851;51.166;4.760;2022-11-06T00:11:47;9.20;99.90
27384;DHT22;14851;51.166;4.760;2022-11-06T00:14:15;9.20;99.90
27384;DHT22;14851;51.166;4.760;2022-11-06T00:16:45;9.20;99.90
27384;DHT22;14851;51.166;4.760;2022-11-06T00:19:12;9.20;99.90
27384;DHT22;14851;51.166;4.760;2022-11-06T00:21:39;9.20;99.90
27384;DHT22;14851;51.166;4.760;2022-11-06T00:24:07;9.10;99.90
27384;DHT22;14851;51.166;4.760;2022-11-06T00:26:35;9.20;99.90
27384;DHT22;14851;51.166;4.760;2022-11-06T00:29:03;9.20;99.90
27384;DHT22;14851;51.166;4.760;2022-11-06T00:31:33;9.30;99.90
27384;DHT22;14851;51.166;4.760;2022-11-06T00:34:03;9.20;99.90
27384;DHT22;14851;51.166;4.760;2022-11-06T00:36:31;9.30;99.90
27384;DHT22;14851;51.166;4.760;2022-11-06T00:38:58;9.20;99.90
27384;DHT22;14851;51.166;4.760;2022-11-06T00:41:26;9.30;99.90
27384;DHT22;14851;51.166;4.760;2022-11-06T00:43:55;9.30;99.90
27384;DHT22;14851;51.166;4.760;2022-11-06T00:46:22;9.30;99.90
27384;DHT22;14851;51.166;4.760;2022-11-06T00:48:49;9.30;99.90
27384;DHT22;14851;51.166;4.760;2022-11-06T00:51:17;9.40;99.90
27384;DHT22;14851;51.166;4.760;2022-11-06T00:53:44;9.40;99.90
27384;DHT22;14851;51.166;4.760;2022-11-06T00:56:18;9.40;99.90
27384;DHT22;14851;51.166;4.760;2022-11-06T00:58:45;9.40;99.90
27384;DHT22;14851;51.166;4.760;2022-11-06T01:01:17;9.50;99.90
27384;DHT22;14851;51.166;4.760;2022-11-06T01:03:47;9.50;99.90
27384;DHT22;14851;51.166;4.760;2022-11-06T01:06:19;9.50;99.90
27384;DHT22;14851;51.166;4.760;2022-11-06T01:08:45;9.50;99.90
27384;DHT22;14851;51.166;4.760;2022-11-06T01:11:21;9.50;99.90
27384;DHT22;14851;51.166;4.760;2022-11-06T01:13:55;9.50;99.90
27384;DHT22;14851;51.166;4.760;2022-11-06T01:16:22;9.50;99.90
27384;DHT22;14851;51.166;4.760;2022-11-06T01:18:49;9.50;99.90
27384;DHT22;14851;51.166;4.760;2022-11-06T01:21:18;9.50;99.90
27384;DHT22;14851;51.166;4.760;2022-11-06T01:23:50;9.50;99.90
27384;DHT22;14851;51.166;4.760;2022-11-06T01:26:16;9.60;99.90
27384;DHT22;14851;51.166;4.760;2022-11-06T01:28:42;9.60;99.90
27384;DHT22;14851;51.166;4.760;2022-11-06T01:31:14;9.70;99.90
27384;DHT22;14851;51.166;4.760;2022-11-06T01:33:41;9.70;99.90
27384;DHT22;14851;51.166;4.760;2022-11-06T01:36:09;9.70;99.90
27384;DHT22;14851;51.166;4.760;2022-11-06T01:38:35;9.60;99.90
27384;DHT22;14851;51.166;4.760;2022-11-06T01:41:01;9.60;99.90
27384;DHT22;14851;51.166;4.760;2022-11-06T01:46:39;9.60;99.90
27384;DHT22;14851;51.166;4.760;2022-11-06T01:49:12;9.60;99.90
27384;DHT22;14851;51.166;4.760;2022-11-06T01:51:48;9.60;99.90
27384;DHT22;14851;51.166;4.760;2022-11-06T01:54:16;9.60;99.90
27384;DHT22;14851;51.166;4.760;2022-11-06T01:56:46;9.70;99.90
27384;DHT22;14851;51.166;4.760;2022-11-06T01:59:15;9.70;99.90
27384;DHT22;14851;51.166;4.760;2022-11-06T02:01:42;9.80;99.90
27384;DHT22;14851;51.166;4.760;2022-11-06T02:04:17;9.70;99.90
27384;DHT22;14851;51.166;4.760;2022-11-06T02:06:44;9.80;99.90
27384;DHT22;14851;51.166;4.760;2022-11-06T02:09:12;9.80;99.90
27384;DHT22;14851;51.166;4.760;2022-11-06T02:11:41;9.90;99.90
27384;DHT22;14851;51.166;4.760;2022-11-06T02:14:33;9.90;99.90
27384;DHT22;14851;51.166;4.760;2022-11-06T02:25:19;9.80;99.90
27384;DHT22;14851;51.166;4.760;2022-11-06T02:28:02;9.70;99.90
27384;DHT22;14851;51.166;4.760;2022-11-06T02:30:42;9.90;99.90
27384;DHT22;14851;51.166;4.760;2022-11-06T02:33:12;9.80;99.90
27384;DHT22;14851;51.166;4.760;2022-11-06T02:35:54;9.80;99.90
27384;DHT22;14851;51.166;4.760;2022-11-06T02:38:43;9.80;99.90
27384;DHT22;14851;51.166;4.760;2022-11-06T02:41:16;9.80;99.90
27384;DHT22;14851;51.166;4.760;2022-11-06T02:43:54;9.90;99.90
27384;DHT22;14851;51.166;4.760;2022-11-06T02:48:55;10.00;99.90
27384;DHT22;14851;51.166;4.760;2022-11-06T02:51:27;9.90;99.90
27384;DHT22;14851;51.166;4.760;2022-11-06T02:53:58;10.00;99.90
27384;DHT22;14851;51.166;4.760;2022-11-06T02:56:33;10.00;99.90
27384;DHT22;14851;51.166;4.760;2022-11-06T02:59:11;10.00;99.90
27384;DHT22;14851;51.166;4.760;2022-11-06T03:01:44;9.90;99.90
27384;DHT22;14851;51.166;4.760;2022-11-06T03:04:29;9.80;99.90
27384;DHT22;14851;51.166;4.760;2022-11-06T03:07:20;9.80;99.90
27384;DHT22;14851;51.166;4.760;2022-11-06T03:09:48;9.90;99.90
27384;DHT22;14851;51.166;4.760;2022-11-06T03:12:27;9.80;99.90
27384;DHT22;14851;51.166;4.760;2022-11-06T03:14:56;9.80;99.90
27384;DHT22;14851;51.166;4.760;2022-11-06T03:17:48;9.80;99.90
27384;DHT22;14851;51.166;4.760;2022-11-06T03:23:17;9.70;99.90
27384;DHT22;14851;51.166;4.760;2022-11-06T03:28:54;9.70;99.90
27384;DHT22;14851;51.166;4.760;2022-11-06T03:31:36;9.70;99.90
27384;DHT22;14851;51.166;4.760;2022-11-06T03:34:13;9.70;99.90
27384;DHT22;14851;51.166;4.760;2022-11-06T03:36:43;9.70;99.90
27384;DHT22;14851;51.166;4.760;2022-11-06T03:39:13;9.70;99.90
27384;DHT22;14851;51.166;4.760;2022-11-06T03:42:02;9.70;99.90
27384;DHT22;14851;51.166;4.760;2022-11-06T03:44:29;9.70;99.90
27384;DHT22;14851;51.166;4.760;2022-11-06T03:47:20;9.60;99.90
27384;DHT22;14851;51.166;4.760;2022-11-06T03:49:55;9.60;99.90
27384;DHT22;14851;51.166;4.760;2022-11-06T03:52:29;9.50;99.90
27384;DHT22;14851;51.166;4.760;2022-11-06T03:55:20;9.50;99.90
27384;DHT22;14851;51.166;4.760;2022-11-06T03:57:54;9.50;99.90
27384;DHT22;14851;51.166;4.760;2022-11-06T04:00:22;9.40;99.90
27384;DHT22;14851;51.166;4.760;2022-11-06T04:03:00;9.40;99.90
27384;DHT22;14851;51.166;4.760;2022-11-06T04:05:44;9.40;99.90
27384;DHT22;14851;51.166;4.760;2022-11-06T04:08:17;9.30;99.90
27384;DHT22;14851;51.166;4.760;2022-11-06T04:11:08;9.30;99.90
27384;DHT22;14851;51.166;4.760;2022-11-06T04:13:55;9.30;99.90
27384;DHT22;14851;51.166;4.760;2022-11-06T04:16:30;9.30;99.90
27384;DHT22;14851;51.166;4.760;2022-11-06T04:18:57;9.30;99.90
27384;DHT22;14851;51.166;4.760;2022-11-06T04:21:32;9.30;99.90
27384;DHT22;14851;51.166;4.760;2022-11-06T04:24:13;9.30;99.90
27384;DHT22;14851;51.166;4.760;2022-11-06T04:30:10;9.20;99.90
27384;DHT22;14851;51.166;4.760;2022-11-06T04:33:10;9.20;99.90
27384;DHT22;14851;51.166;4.760;2022-11-06T04:36:01;9.20;99.90
27384;DHT22;14851;51.166;4.760;2022-11-06T04:42:01;9.20;99.90
27384;DHT22;14851;51.166;4.760;2022-11-06T04:44:40;9.10;99.90
27384;DHT22;14851;51.166;4.760;2022-11-06T04:47:10;9.10;99.90
27384;DHT22;14851;51.166;4.760;2022-11-06T04:49:38;9.10;99.90
27384;DHT22;14851;51.166;4.760;2022-11-06T04:52:10;9.10;99.90
27384;DHT22;14851;51.166;4.760;2022-11-06T04:54:38;9.00;99.90
27384;DHT22;14851;51.166;4.760;2022-11-06T04:57:04;9.10;99.90
27384;DHT22;14851;51.166;4.760;2022-11-06T04:59:35;9.00;99.90
27384;DHT22;14851;51.166;4.760;2022-11-06T05:02:02;9.00;99.90
27384;DHT22;14851;51.166;4.760;2022-11-06T05:04:28;9.00;99.90
27384;DHT22;14851;51.166;4.760;2022-11-06T05:06:55;9.00;99.90
27384;DHT22;14851;51.166;4.760;2022-11-06T05:09:22;9.00;99.90
27384;DHT22;14851;51.166;4.760;2022-11-06T05:11:51;8.90;99.90
27384;DHT22;14851;51.166;4.760;2022-11-06T05:14:19;8.90;99.90
27384;DHT22;14851;51.166;4.760;2022-11-06T05:16:49;9.00;99.90
27384;DHT22;14851;51.166;4.760;2022-11-06T05:19:15;8.90;99.90
27384;DHT22;14851;51.166;4.760;2022-11-06T05:21:41;8.90;99.90
27384;DHT22;14851;51.166;4.760;2022-11-06T05:24:26;8.90;99.90
27384;DHT22;14851;51.166;4.760;2022-11-06T05:26:52;9.00;99.90
27384;DHT22;14851;51.166;4.760;2022-11-06T05:29:19;9.00;99.90
27384;DHT22;14851;51.166;4.760;2022-11-06T05:31:46;8.90;99.90
27384;DHT22;14851;51.166;4.760;2022-11-06T05:34:14;9.00;99.90
27384;DHT22;14851;51.166;4.760;2022-11-06T05:36:40;9.00;99.90
27384;DHT22;14851;51.166;4.760;2022-11-06T05:39:06;9.00;99.90
27384;DHT22;14851;51.166;4.760;2022-11-06T05:41:35;9.00;99.90
27384;DHT22;14851;51.166;4.760;2022-11-06T05:44:01;9.00;99.90
27384;DHT22;14851;51.166;4.760;2022-11-06T05:46:27;9.10;99.90
27384;DHT22;14851;51.166;4.760;2022-11-06T05:48:56;9.10;99.90
27384;DHT22;14851;51.166;4.760;2022-11-06T05:51:22;9.10;99.90
27384;DHT22;14851;51.166;4.760;2022-11-06T05:53:51;9.10;99.90
27384;DHT22;14851;51.166;4.760;2022-11-06T05:56:16;9.10;99.90
27384;DHT22;14851;51.166;4.760;2022-11-06T05:58:45;9.20;99.90
27384;DHT22;14851;51.166;4.760;2022-11-06T06:01:11;9.20;99.90
27384;DHT22;14851;51.166;4.760;2022-11-06T06:03:38;9.20;99.90
27384;DHT22;14851;51.166;4.760;2022-11-06T06:06:06;9.30;99.90
27384;DHT22;14851;51.166;4.760;2022-11-06T06:08:35;9.30;99.90
27384;DHT22;14851;51.166;4.760;2022-11-06T06:11:07;9.30;99.90
27384;DHT22;14851;51.166;4.760;2022-11-06T06:13:35;9.30;99.90
27384;DHT22;14851;51.166;4.760;2022-11-06T06:16:02;9.40;99.90
27384;DHT22;14851;51.166;4.760;2022-11-06T06:18:28;9.40;99.90
27384;DHT22;14851;51.166;4.760;2022-11-06T06:20:56;9.50;99.90
27384;DHT22;14851;51.166;4.760;2022-11-06T06:23:25;9.60;99.90
27384;DHT22;14851;51.166;4.760;2022-11-06T06:25:55;9.50;99.90
27384;DHT22;14851;51.166;4.760;2022-11-06T06:28:21;9.60;99.90
27384;DHT22;14851;51.166;4.760;2022-11-06T06:30:48;9.60;99.90
27384;DHT22;14851;51.166;4.760;2022-11-06T06:33:14;9.60;99.90
27384;DHT22;14851;51.166;4.760;2022-11-06T06:35:41;9.60;99.90
27384;DHT22;14851;51.166;4.760;2022-11-06T06:38:07;9.70;99.90
27384;DHT22;14851;51.166;4.760;2022-11-06T06:40:33;9.60;99.90
27384;DHT22;14851;51.166;4.760;2022-11-06T06:43:01;9.60;99.90
27384;DHT22;14851;51.166;4.760;2022-11-06T06:45:27;9.70;99.90
27384;DHT22;14851;51.166;4.760;2022-11-06T06:47:53;9.70;99.90
27384;DHT22;14851;51.166;4.760;2022-11-06T06:50:18;9.70;99.90
27384;DHT22;14851;51.166;4.760;2022-11-06T06:52:47;9.70;99.90
27384;DHT22;14851;51.166;4.760;2022-11-06T06:55:16;9.80;99.90
27384;DHT22;14851;51.166;4.760;2022-11-06T06:57:42;9.80;99.90
27384;DHT22;14851;51.166;4.760;2022-11-06T07:00:09;9.90;99.90
27384;DHT22;14851;51.166;4.760;2022-11-06T07:02:39;9.80;99.90
27384;DHT22;14851;51.166;4.760;2022-11-06T07:05:06;9.90;99.90
27384;DHT22;14851;51.166;4.760;2022-11-06T07:07:32;9.90;99.90
27384;DHT22;14851;51.166;4.760;2022-11-06T07:10:00;9.90;99.90
27384;DHT22;14851;51.166;4.760;2022-11-06T07:12:27;9.90;99.90
27384;DHT22;14851;51.166;4.760;2022-11-06T07:14:53;10.00;99.90
27384;DHT22;14851;51.166;4.760;2022-11-06T07:17:19;10.00;99.90
27384;DHT22;14851;51.166;4.760;2022-11-06T07:19:48;10.00;99.90
27384;DHT22;14851;51.166;4.760;2022-11-06T07:22:16;10.10;99.90
27384;DHT22;14851;51.166;4.760;2022-11-06T07:24:43;10.20;99.90
27384;DHT22;14851;51.166;4.760;2022-11-06T07:27:09;10.20;99.90
27384;DHT22;14851;51.166;4.760;2022-11-06T07:29:37;10.30;99.90
27384;DHT22;14851;51.166;4.760;2022-11-06T07:32:07;10.30;99.90
27384;DHT22;14851;51.166;4.760;2022-11-06T07:34:37;10.30;99.90
27384;DHT22;14851;51.166;4.760;2022-11-06T07:37:04;10.30;99.90
27384;DHT22;14851;51.166;4.760;2022-11-06T07:39:33;10.40;99.90
27384;DHT22;14851;51.166;4.760;2022-11-06T07:42:00;10.30;99.90
27384;DHT22;14851;51.166;4.760;2022-11-06T07:44:33;10.30;99.90
27384;DHT22;14851;51.166;4.760;2022-11-06T07:46:59;10.30;99.90
27384;DHT22;14851;51.166;4.760;2022-11-06T07:49:26;10.30;99.90
27384;DHT22;14851;51.166;4.760;2022-11-06T07:51:52;10.40;99.90
27384;DHT22;14851;51.166;4.760;2022-11-06T07:54:18;10.40;99.90
27384;DHT22;14851;51.166;4.760;2022-11-06T07:56:44;10.40;99.90
27384;DHT22;14851;51.166;4.760;2022-11-06T07:59:13;10.40;99.90
27384;DHT22;14851;51.166;4.760;2022-11-06T08:01:42;10.30;99.90
27384;DHT22;14851;51.166;4.760;2022-11-06T08:04:16;10.30;99.90
27384;DHT22;14851;51.166;4.760;2022-11-06T08:06:44;10.30;99.90
27384;DHT22;14851;51.166;4.760;2022-11-06T08:09:10;10.30;99.90
27384;DHT22;14851;51.166;4.760;2022-11-06T08:11:38;10.20;99.90
27384;DHT22;14851;51.166;4.760;2022-11-06T08:14:05;10.30;99.90
27384;DHT22;14851;51.166;4.760;2022-11-06T08:16:31;10.30;99.90
27384;DHT22;14851;51.166;4.760;2022-11-06T08:18:58;10.30;99.90
27384;DHT22;14851;51.166;4.760;2022-11-06T08:21:29;10.40;99.90
27384;DHT22;14851;51.166;4.760;2022-11-06T08:23:58;10.30;99.90
27384;DHT22;14851;51.166;4.760;2022-11-06T08:26:24;10.30;99.90
27384;DHT22;14851;51.166;4.760;2022-11-06T08:28:52;10.50;99.90
27384;DHT22;14851;51.166;4.760;2022-11-06T08:31:19;10.40;99.90
27384;DHT22;14851;51.166;4.760;2022-11-06T08:33:45;10.50;99.90
27384;DHT22;14851;51.166;4.760;2022-11-06T08:36:14;10.50;99.90
27384;DHT22;14851;51.166;4.760;2022-11-06T08:38:40;10.50;99.90
27384;DHT22;14851;51.166;4.760;2022-11-06T08:41:10;10.50;99.90
27384;DHT22;14851;51.166;4.760;2022-11-06T08:43:37;10.60;99.90
27384;DHT22;14851;51.166;4.760;2022-11-06T08:46:07;10.50;99.90
27384;DHT22;14851;51.166;4.760;2022-11-06T08:48:36;10.50;99.90
27384;DHT22;14851;51.166;4.760;2022-11-06T08:51:03;10.50;99.90
27384;DHT22;14851;51.166;4.760;2022-11-06T08:53:29;10.40;99.90
27384;DHT22;14851;51.166;4.760;2022-11-06T08:55:55;10.40;99.90
27384;DHT22;14851;51.166;4.760;2022-11-06T08:58:20;10.60;99.90
27384;DHT22;14851;51.166;4.760;2022-11-06T09:00:46;10.60;99.90
27384;DHT22;14851;51.166;4.760;2022-11-06T09:03:14;10.60;99.90
27384;DHT22;14851;51.166;4.760;2022-11-06T09:05:42;10.50;99.90
27384;DHT22;14851;51.166;4.760;2022-11-06T09:08:10;10.50;99.90
27384;DHT22;14851;51.166;4.760;2022-11-06T09:10:37;10.40;99.90
27384;DHT22;14851;51.166;4.760;2022-11-06T09:13:04;10.60;99.90
27384;DHT22;14851;51.166;4.760;2022-11-06T09:15:32;10.50;99.90
27384;DHT22;14851;51.166;4.760;2022-11-06T09:17:58;10.50;99.90
27384;DHT22;14851;51.166;4.760;2022-11-06T09:20:29;10.50;99.90
27384;DHT22;14851;51.166;4.760;2022-11-06T09:22:59;10.60;99.90
27384;DHT22;14851;51.166;4.760;2022-11-06T09:25:27;10.70;99.90
27384;DHT22;14851;51.166;4.760;2022-11-06T09:27:56;10.70;99.90
27384;DHT22;14851;51.166;4.760;2022-11-06T09:30:23;10.80;99.90
27384;DHT22;14851;51.166;4.760;2022-11-06T09:32:52;10.90;99.90
27384;DHT22;14851;51.166;4.760;2022-11-06T09:35:19;10.90;99.90
27384;DHT22;14851;51.166;4.760;2022-11-06T09:37:46;10.80;99.90
27384;DHT22;14851;51.166;4.760;2022-11-06T09:40:20;10.70;99.90
27384;DHT22;14851;51.166;4.760;2022-11-06T09:45:31;10.70;99.90
27384;DHT22;14851;51.166;4.760;2022-11-06T09:48:06;10.80;99.90
27384;DHT22;14851;51.166;4.760;2022-11-06T09:50:57;10.80;99.90
27384;DHT22;14851;51.166;4.760;2022-11-06T09:53:35;10.90;99.90
27384;DHT22;14851;51.166;4.760;2022-11-06T09:56:05;10.90;99.90
27384;DHT22;14851;51.166;4.760;2022-11-06T09:58:36;10.90;99.90
27384;DHT22;14851;51.166;4.760;2022-11-06T10:01:12;10.90;99.90
27384;DHT22;14851;51.166;4.760;2022-11-06T10:03:48;10.90;99.90
27384;DHT22;14851;51.166;4.760;2022-11-06T10:06:20;10.90;99.90
27384;DHT22;14851;51.166;4.760;2022-11-06T10:08:47;11.00;99.90
27384;DHT22;14851;51.166;4.760;2022-11-06T10:24:46;11.20;99.90
27384;DHT22;14851;51.166;4.760;2022-11-06T10:27:22;11.20;99.90
27384;DHT22;14851;51.166;4.760;2022-11-06T10:35:38;11.40;99.90
27384;DHT22;14851;51.166;4.760;2022-11-06T10:38:13;11.50;99.90
27384;DHT22;14851;51.166;4.760;2022-11-06T10:40:44;11.60;99.90
27384;DHT22;14851;51.166;4.760;2022-11-06T10:43:26;11.70;99.90
27384;DHT22;14851;51.166;4.760;2022-11-06T10:48:58;11.90;99.90
27384;DHT22;14851;51.166;4.760;2022-11-06T10:57:43;12.00;99.90
27384;DHT22;14851;51.166;4.760;2022-11-06T11:00:12;12.10;99.90
27384;DHT22;14851;51.166;4.760;2022-11-06T11:03:04;12.00;99.90
27384;DHT22;14851;51.166;4.760;2022-11-06T11:05:42;12.10;99.90
27384;DHT22;14851;51.166;4.760;2022-11-06T11:08:46;12.10;99.90
27384;DHT22;14851;51.166;4.760;2022-11-06T11:14:13;12.10;99.90
27384;DHT22;14851;51.166;4.760;2022-11-06T11:16:43;12.10;99.90
27384;DHT22;14851;51.166;4.760;2022-11-06T11:19:37;12.10;99.90
27384;DHT22;14851;51.166;4.760;2022-11-06T11:27:28;12.00;99.90
27384;DHT22;14851;51.166;4.760;2022-11-06T11:29:56;12.00;99.90
27384;DHT22;14851;51.166;4.760;2022-11-06T11:32:23;12.00;99.90
27384;DHT22;14851;51.166;4.760;2022-11-06T11:34:56;12.00;99.90
27384;DHT22;14851;51.166;4.760;2022-11-06T11:37:32;12.00;99.90
27384;DHT22;14851;51.166;4.760;2022-11-06T11:40:34;12.10;99.90
27384;DHT22;14851;51.166;4.760;2022-11-06T11:43:23;12.10;99.90
27384;DHT22;14851;51.166;4.760;2022-11-06T11:46:16;12.10;99.90
27384;DHT22;14851;51.166;4.760;2022-11-06T11:48:56;12.00;99.90
27384;DHT22;14851;51.166;4.760;2022-11-06T11:51:34;12.00;99.90
27384;DHT22;14851;51.166;4.760;2022-11-06T11:54:05;12.10;99.90
27384;DHT22;14851;51.166;4.760;2022-11-06T11:56:33;12.00;99.90
27384;DHT22;14851;51.166;4.760;2022-11-06T11:59:00;12.00;99.90
27384;DHT22;14851;51.166;4.760;2022-11-06T12:01:38;12.00;99.90
27384;DHT22;14851;51.166;4.760;2022-11-06T12:04:32;12.00;99.90
27384;DHT22;14851;51.166;4.760;2022-11-06T12:07:04;12.10;99.90
27384;DHT22;14851;51.166;4.760;2022-11-06T12:09:41;12.00;99.90
27384;DHT22;14851;51.166;4.760;2022-11-06T12:12:23;12.00;99.90
27384;DHT22;14851;51.166;4.760;2022-11-06T12:18:10;11.90;99.90
27384;DHT22;14851;51.166;4.760;2022-11-06T12:20:58;11.90;99.90
27384;DHT22;14851;51.166;4.760;2022-11-06T12:23:47;12.00;99.90
27384;DHT22;14851;51.166;4.760;2022-11-06T12:26:36;12.00;99.90
27384;DHT22;14851;51.166;4.760;2022-11-06T12:29:22;12.00;99.90
27384;DHT22;14851;51.166;4.760;2022-11-06T12:32:13;11.90;99.90
27384;DHT22;14851;51.166;4.760;2022-11-06T12:35:17;11.70;99.90
27384;DHT22;14851;51.166;4.760;2022-11-06T12:38:11;11.70;99.90
27384;DHT22;14851;51.166;4.760;2022-11-06T12:40:44;11.70;99.90
27384;DHT22;14851;51.166;4.760;2022-11-06T12:49:32;11.40;99.90
27384;DHT22;14851;51.166;4.760;2022-11-06T12:52:10;11.20;99.90
27384;DHT22;14851;51.166;4.760;2022-11-06T12:58:16;11.10;99.90
27384;DHT22;14851;51.166;4.760;2022-11-06T13:03:42;11.00;99.90
27384;DHT22;14851;51.166;4.760;2022-11-06T13:11:54;10.90;99.90
27384;DHT22;14851;51.166;4.760;2022-11-06T13:14:36;10.80;99.90
27384;DHT22;14851;51.166;4.760;2022-11-06T13:17:21;10.70;99.90
27384;DHT22;14851;51.166;4.760;2022-11-06T13:20:42;10.80;99.90
27384;DHT22;14851;51.166;4.760;2022-11-06T13:30:56;10.60;99.90
27384;DHT22;14851;51.166;4.760;2022-11-06T13:33:31;10.60;99.90
27384;DHT22;14851;51.166;4.760;2022-11-06T13:35:59;10.50;99.90
27384;DHT22;14851;51.166;4.760;2022-11-06T13:38:32;10.50;99.90
27384;DHT22;14851;51.166;4.760;2022-11-06T13:41:13;10.50;99.90
27384;DHT22;14851;51.166;4.760;2022-11-06T13:43:52;10.50;99.90
27384;DHT22;14851;51.166;4.760;2022-11-06T13:49:41;10.40;99.90
27384;DHT22;14851;51.166;4.760;2022-11-06T13:52:15;10.40;99.90
27384;DHT22;14851;51.166;4.760;2022-11-06T13:55:11;10.30;99.90
27384;DHT22;14851;51.166;4.760;2022-11-06T14:00:53;10.20;99.90
27384;DHT22;14851;51.166;4.760;2022-11-06T14:06:28;10.10;99.90
27384;DHT22;14851;51.166;4.760;2022-11-06T14:08:57;10.10;99.90
27384;DHT22;14851;51.166;4.760;2022-11-06T14:11:31;10.00;99.90
27384;DHT22;14851;51.166;4.760;2022-11-06T14:14:03;10.00;99.90
27384;DHT22;14851;51.166;4.760;2022-11-06T14:16:40;9.90;99.90
27384;DHT22;14851;51.166;4.760;2022-11-06T14:19:12;9.90;99.90
27384;DHT22;14851;51.166;4.760;2022-11-06T14:21:49;9.90;99.90
27384;DHT22;14851;51.166;4.760;2022-11-06T14:24:41;9.80;99.90
27384;DHT22;14851;51.166;4.760;2022-11-06T14:40:37;9.70;99.90
27384;DHT22;14851;51.166;4.760;2022-11-06T14:43:25;9.70;99.90
27384;DHT22;14851;51.166;4.760;2022-11-06T14:48:52;9.60;99.90
27384;DHT22;14851;51.166;4.760;2022-11-06T14:51:28;9.60;99.90
27384;DHT22;14851;51.166;4.760;2022-11-06T14:54:00;9.60;99.90
27384;DHT22;14851;51.166;4.760;2022-11-06T14:56:30;9.60;99.90
27384;DHT22;14851;51.166;4.760;2022-11-06T14:59:05;9.60;99.90
27384;DHT22;14851;51.166;4.760;2022-11-06T15:01:34;9.50;99.90
27384;DHT22;14851;51.166;4.760;2022-11-06T15:04:14;9.60;99.90
27384;DHT22;14851;51.166;4.760;2022-11-06T15:06:49;9.60;99.90
27384;DHT22;14851;51.166;4.760;2022-11-06T15:16:54;9.50;99.90
27384;DHT22;14851;51.166;4.760;2022-11-06T15:19:28;9.50;99.90
27384;DHT22;14851;51.166;4.760;2022-11-06T15:22:20;9.40;99.90
27384;DHT22;14851;51.166;4.760;2022-11-06T15:25:19;9.40;99.90
27384;DHT22;14851;51.166;4.760;2022-11-06T15:28:04;9.40;99.90
27384;DHT22;14851;51.166;4.760;2022-11-06T15:31:02;9.30;99.90
27384;DHT22;14851;51.166;4.760;2022-11-06T15:33:35;9.30;99.90
27384;DHT22;14851;51.166;4.760;2022-11-06T15:36:09;9.30;99.90
27384;DHT22;14851;51.166;4.760;2022-11-06T15:38:39;9.30;99.90
27384;DHT22;14851;51.166;4.760;2022-11-06T15:41:10;9.20;99.90
27384;DHT22;14851;51.166;4.760;2022-11-06T15:43:37;9.30;99.90
27384;DHT22;14851;51.166;4.760;2022-11-06T15:46:25;9.20;99.90
27384;DHT22;14851;51.166;4.760;2022-11-06T15:49:16;9.20;99.90
27384;DHT22;14851;51.166;4.760;2022-11-06T15:51:58;9.20;99.90
27384;DHT22;14851;51.166;4.760;2022-11-06T15:54:38;9.20;99.90
27384;DHT22;14851;51.166;4.760;2022-11-06T15:57:12;9.20;99.90
27384;DHT22;14851;51.166;4.760;2022-11-06T15:59:42;9.20;99.90
27384;DHT22;14851;51.166;4.760;2022-11-06T16:02:29;9.20;99.90
27384;DHT22;14851;51.166;4.760;2022-11-06T16:04:56;9.20;99.90
27384;DHT22;14851;51.166;4.760;2022-11-06T16:07:24;9.20;99.90
27384;DHT22;14851;51.166;4.760;2022-11-06T16:09:52;9.10;99.90
27384;DHT22;14851;51.166;4.760;2022-11-06T16:12:21;8.90;99.90
27384;DHT22;14851;51.166;4.760;2022-11-06T16:14:49;8.70;99.90
27384;DHT22;14851;51.166;4.760;2022-11-06T16:17:27;8.70;99.90
27384;DHT22;14851;51.166;4.760;2022-11-06T16:19:56;8.60;99.90
27384;DHT22;14851;51.166;4.760;2022-11-06T16:22:30;8.60;99.90
27384;DHT22;14851;51.166;4.760;2022-11-06T16:25:00;8.60;99.90
27384;DHT22;14851;51.166;4.760;2022-11-06T16:27:33;8.60;99.90
27384;DHT22;14851;51.166;4.760;2022-11-06T16:30:03;8.60;99.90
27384;DHT22;14851;51.166;4.760;2022-11-06T16:32:36;8.60;99.90
27384;DHT22;14851;51.166;4.760;2022-11-06T16:35:30;8.60;99.90
27384;DHT22;14851;51.166;4.760;2022-11-06T16:40:54;8.50;99.90
27384;DHT22;14851;51.166;4.760;2022-11-06T16:43:22;8.60;99.90
27384;DHT22;14851;51.166;4.760;2022-11-06T16:46:00;8.60;99.90
27384;DHT22;14851;51.166;4.760;2022-11-06T16:48:34;8.50;99.90
27384;DHT22;14851;51.166;4.760;2022-11-06T16:51:21;8.50;99.90
27384;DHT22;14851;51.166;4.760;2022-11-06T16:54:00;8.50;99.90
27384;DHT22;14851;51.166;4.760;2022-11-06T16:56:31;8.50;99.90
27384;DHT22;14851;51.166;4.760;2022-11-06T16:59:03;8.60;99.90
27384;DHT22;14851;51.166;4.760;2022-11-06T17:01:42;8.60;99.90
27384;DHT22;14851;51.166;4.760;2022-11-06T17:04:19;8.50;99.90
27384;DHT22;14851;51.166;4.760;2022-11-06T17:06:51;8.50;99.90
27384;DHT22;14851;51.166;4.760;2022-11-06T17:11:52;8.60;99.90
27384;DHT22;14851;51.166;4.760;2022-11-06T17:14:19;8.70;99.90
27384;DHT22;14851;51.166;4.760;2022-11-06T17:16:51;8.70;99.90
27384;DHT22;14851;51.166;4.760;2022-11-06T17:19:19;8.80;99.90
27384;DHT22;14851;51.166;4.760;2022-11-06T17:21:47;8.90;99.90
27384;DHT22;14851;51.166;4.760;2022-11-06T17:24:13;8.90;99.90
27384;DHT22;14851;51.166;4.760;2022-11-06T17:26:46;8.90;99.90
27384;DHT22;14851;51.166;4.760;2022-11-06T17:29:13;8.90;99.90
27384;DHT22;14851;51.166;4.760;2022-11-06T17:31:40;8.90;99.90
27384;DHT22;14851;51.166;4.760;2022-11-06T17:34:07;9.00;99.90
27384;DHT22;14851;51.166;4.760;2022-11-06T17:36:34;9.00;99.90
27384;DHT22;14851;51.166;4.760;2022-11-06T17:39:01;9.00;99.90
27384;DHT22;14851;51.166;4.760;2022-11-06T17:41:27;9.10;99.90
27384;DHT22;14851;51.166;4.760;2022-11-06T17:44:00;9.10;99.90
27384;DHT22;14851;51.166;4.760;2022-11-06T17:46:29;9.10;99.90
27384;DHT22;14851;51.166;4.760;2022-11-06T17:49:01;9.10;99.90
27384;DHT22;14851;51.166;4.760;2022-11-06T17:51:33;9.10;99.90
27384;DHT22;14851;51.166;4.760;2022-11-06T17:54:17;9.10;99.90
27384;DHT22;14851;51.166;4.760;2022-11-06T17:56:43;9.20;99.90
27384;DHT22;14851;51.166;4.760;2022-11-06T17:59:12;9.10;99.90
27384;DHT22;14851;51.166;4.760;2022-11-06T18:01:40;9.20;99.90
27384;DHT22;14851;51.166;4.760;2022-11-06T18:04:07;9.20;99.90
27384;DHT22;14851;51.166;4.760;2022-11-06T18:06:35;9.20;99.90
27384;DHT22;14851;51.166;4.760;2022-11-06T18:09:05;9.30;99.90
27384;DHT22;14851;51.166;4.760;2022-11-06T18:11:32;9.30;99.90
27384;DHT22;14851;51.166;4.760;2022-11-06T18:14:02;9.30;99.90
27384;DHT22;14851;51.166;4.760;2022-11-06T18:16:32;9.40;99.90
27384;DHT22;14851;51.166;4.760;2022-11-06T18:19:00;9.40;99.90
27384;DHT22;14851;51.166;4.760;2022-11-06T18:21:29;9.30;99.90
27384;DHT22;14851;51.166;4.760;2022-11-06T18:23:55;9.40;99.90
27384;DHT22;14851;51.166;4.760;2022-11-06T18:26:24;9.40;99.90
27384;DHT22;14851;51.166;4.760;2022-11-06T18:28:50;9.40;99.90